Havana, North Dakota
Current Conditions -  °F | °C
As of 8:15 PM on Sunday 21 Dec 2014 (Local Time) from KGWR Reporting Station
Overcast Overcast  
Wind Chill: 26°   Ceiling: 1000
Heat Index: 34°   Visibility: 10mi
Dew Point: 34°   Wind: 9mph
Humidity: 100%   Direction: 130°SE
Pressure: 29.53"   Gusts: NA
Location:  45.95°N, 97.62°W
Report Text: KGWR 220215Z AUTO 13008KT 10SM OVC010 01/01 A2953 RMK A01 P000
Loading
Personal Weather Stations






























Interactive Weather Map New forecast layout! Learn more

10-Day Weather Forecast

Advertisements
Track Severe Weather on mobile